createdAt,value
2019-04-14T00:01:09.313Z,29.23
2019-04-14T00:03:45.492Z,26.93
2019-04-14T00:06:14.287Z,26.75
2019-04-14T00:08:43.758Z,26.25
2019-04-14T00:11:12.638Z,26.85
2019-04-14T00:13:41.373Z,28.67
2019-04-14T00:16:10.020Z,28.30
2019-04-14T00:18:38.683Z,28.75
2019-04-14T00:21:07.222Z,29.25
2019-04-14T00:23:36.980Z,29.00
2019-04-14T00:26:24.990Z,28.25
2019-04-14T00:28:53.997Z,30.97
2019-04-14T00:31:23.884Z,29.32
2019-04-14T00:33:54.292Z,30.25
2019-04-14T00:36:52.313Z,31.65
2019-04-14T00:39:25.035Z,30.00
2019-04-14T00:42:03.046Z,29.40
2019-04-14T00:44:53.822Z,29.75
2019-04-14T00:47:29.119Z,30.43
2019-04-14T00:49:57.762Z,30.50
2019-04-14T00:52:27.673Z,31.77
2019-04-14T00:54:56.723Z,29.42
2019-04-14T00:57:25.550Z,31.12
2019-04-14T00:59:55.559Z,30.65
2019-04-14T01:02:25.334Z,31.40
2019-04-14T01:04:54.138Z,30.08
2019-04-14T01:07:24.148Z,33.48
2019-04-14T01:09:53.231Z,32.63
2019-04-14T01:12:21.864Z,31.95
2019-04-14T01:14:51.673Z,31.33
2019-04-14T01:17:20.566Z,33.25
2019-04-14T01:19:50.529Z,32.73
2019-04-14T01:22:20.546Z,32.08
2019-04-14T01:24:49.321Z,32.03
2019-04-14T01:27:18.874Z,32.05
2019-04-14T01:29:47.521Z,29.90
2019-04-14T01:32:17.541Z,30.85
2019-04-14T01:34:46.232Z,30.65
2019-04-14T01:37:15.848Z,29.60
2019-04-14T01:39:44.575Z,30.00
2019-04-14T01:42:13.803Z,29.82
2019-04-14T01:44:42.446Z,26.40
2019-04-14T01:47:11.639Z,27.95
2019-04-14T01:49:40.398Z,28.07
2019-04-14T01:52:21.005Z,26.12
2019-04-14T01:55:09.204Z,24.98
2019-04-14T01:57:57.511Z,26.55
2019-04-14T02:00:42.314Z,25.57
2019-04-14T02:03:11.029Z,26.35
2019-04-14T02:05:40.712Z,24.98
2019-04-14T02:08:09.455Z,24.75
2019-04-14T02:10:39.212Z,24.27
2019-04-14T02:13:09.184Z,23.45
2019-04-14T02:15:37.863Z,23.60
2019-04-14T02:18:07.698Z,23.15
2019-04-14T02:20:36.449Z,22.70
2019-04-14T02:23:06.131Z,22.82
2019-04-14T02:25:36.028Z,23.90
2019-04-14T02:28:04.872Z,24.32
2019-04-14T02:30:41.723Z,21.68
2019-04-14T02:33:40.166Z,24.80
2019-04-14T02:36:06.020Z,22.62
2019-04-14T02:41:02.479Z,23.27
2019-04-14T02:48:53.296Z,22.82
2019-04-14T02:51:05.804Z,24.80
2019-04-14T02:56:08.098Z,23.30
2019-04-14T02:58:48.350Z,25.17
2019-04-14T03:01:07.201Z,23.80
2019-04-14T03:06:10.322Z,24.50
2019-04-14T03:08:44.682Z,24.92
2019-04-14T03:11:12.004Z,24.95
2019-04-14T03:16:15.561Z,25.32
2019-04-14T03:18:58.249Z,26.73
2019-04-14T03:21:49.320Z,26.42
2019-04-14T03:24:30.797Z,24.87
2019-04-14T03:27:30.552Z,24.80
2019-04-14T03:33:13.501Z,25.75
2019-04-14T03:35:35.991Z,26.97
2019-04-14T03:40:13.854Z,26.23
2019-04-14T03:42:48.572Z,25.72
2019-04-14T03:45:16.717Z,25.57
2019-04-14T03:47:43.925Z,26.25
2019-04-14T03:50:13.693Z,27.93
2019-04-14T03:52:50.234Z,26.65
2019-04-14T03:55:09.368Z,27.70
2019-04-14T03:57:21.897Z,25.95
2019-04-14T03:59:50.525Z,26.90
2019-04-14T04:02:20.368Z,26.27
2019-04-14T04:04:49.115Z,26.50
2019-04-14T04:07:17.627Z,27.50
2019-04-14T04:09:54.227Z,24.95
2019-04-14T04:12:22.863Z,27.58
2019-04-14T04:14:51.568Z,25.88
2019-04-14T04:17:40.794Z,27.15
2019-04-14T04:20:47.749Z,24.98
2019-04-14T04:23:29.168Z,28.17
2019-04-14T04:26:06.176Z,26.75
2019-04-14T04:28:54.000Z,26.55
2019-04-14T04:31:41.713Z,27.02
2019-04-14T04:34:16.267Z,25.08
2019-04-14T04:37:01.724Z,26.45
2019-04-14T04:39:35.290Z,24.67
2019-04-14T04:42:04.824Z,25.57
2019-04-14T04:44:33.538Z,23.62
2019-04-14T04:47:03.405Z,24.18
2019-04-14T04:49:32.908Z,24.65
2019-04-14T04:52:03.991Z,24.32
2019-04-14T04:54:34.250Z,25.30
2019-04-14T04:57:03.165Z,23.67
2019-04-14T04:59:32.086Z,24.57
2019-04-14T05:02:00.702Z,26.42
2019-04-14T05:04:29.239Z,26.37
2019-04-14T05:06:59.742Z,27.45
2019-04-14T05:10:04.678Z,25.32
2019-04-14T05:12:54.280Z,25.02
2019-04-14T05:15:33.420Z,25.23
2019-04-14T05:18:02.792Z,29.40
2019-04-14T05:20:31.563Z,26.23
2019-04-14T05:23:01.486Z,24.92
2019-04-14T05:25:30.233Z,23.20
2019-04-14T05:27:58.849Z,26.27
2019-04-14T05:30:28.485Z,25.80
2019-04-14T05:32:58.430Z,27.40
2019-04-14T05:35:27.689Z,23.65
2019-04-14T05:37:57.326Z,25.08
2019-04-14T05:40:25.950Z,24.07
2019-04-14T05:42:54.478Z,23.90
2019-04-14T05:45:24.083Z,24.00
2019-04-14T05:47:54.264Z,23.35
2019-04-14T05:50:23.030Z,23.35
2019-04-14T05:52:51.563Z,23.47
2019-04-14T05:55:20.202Z,21.97
2019-04-14T05:57:48.850Z,23.05
2019-04-14T06:00:19.161Z,22.17
2019-04-14T06:02:48.527Z,20.48
2019-04-14T06:05:17.310Z,20.65
2019-04-14T06:07:45.851Z,19.55
2019-04-14T06:10:14.574Z,20.88
2019-04-14T06:12:43.205Z,22.07
2019-04-14T06:15:12.009Z,22.62
2019-04-14T06:17:40.662Z,21.87
2019-04-14T06:20:09.489Z,19.55
2019-04-14T06:22:38.025Z,19.65
2019-04-14T06:25:07.178Z,18.50
2019-04-14T06:27:36.218Z,20.15
2019-04-14T06:30:27.086Z,19.67
2019-04-14T06:32:57.167Z,18.55
2019-04-14T06:35:43.808Z,19.05
2019-04-14T06:38:17.443Z,18.62
2019-04-14T06:40:53.957Z,20.80
2019-04-14T06:43:22.509Z,19.07
2019-04-14T06:45:51.017Z,23.38
2019-04-14T06:48:19.640Z,19.25
2019-04-14T06:50:48.377Z,18.70
2019-04-14T06:53:17.024Z,19.25
2019-04-14T06:55:45.547Z,18.12
2019-04-14T06:58:14.226Z,18.00
2019-04-14T07:00:42.735Z,17.67
2019-04-14T07:03:11.366Z,17.77
2019-04-14T07:05:39.905Z,18.00
2019-04-14T07:08:08.553Z,17.73
2019-04-14T07:10:37.119Z,18.48
2019-04-14T07:13:05.842Z,18.70
2019-04-14T07:15:34.344Z,19.95
2019-04-14T07:18:02.980Z,17.52
2019-04-14T07:20:31.529Z,18.15
2019-04-14T07:23:00.044Z,17.62
2019-04-14T07:25:28.591Z,17.95
2019-04-14T07:27:57.320Z,15.60
2019-04-14T07:30:44.009Z,15.43
2019-04-14T07:33:31.310Z,16.77
2019-04-14T07:36:22.116Z,16.15
2019-04-14T07:38:56.011Z,17.95
2019-04-14T07:41:30.265Z,19.27
2019-04-14T07:44:30.635Z,16.70
2019-04-14T07:47:24.452Z,15.48
2019-04-14T07:50:24.726Z,15.70
2019-04-14T07:53:09.973Z,17.17
2019-04-14T07:55:45.550Z,16.55
2019-04-14T07:58:27.305Z,16.42
2019-04-14T08:01:03.558Z,17.20
2019-04-14T08:04:06.659Z,17.52
2019-04-14T08:06:35.201Z,17.75
2019-04-14T08:09:05.875Z,17.65
2019-04-14T08:11:34.498Z,17.07
2019-04-14T08:14:03.545Z,16.60
2019-04-14T08:16:32.150Z,15.55
2019-04-14T08:19:00.772Z,15.70
2019-04-14T08:21:29.541Z,14.58
2019-04-14T08:23:58.099Z,15.32
2019-04-14T08:26:26.724Z,15.75
2019-04-14T08:28:55.289Z,14.35
2019-04-14T08:31:23.899Z,13.68
2019-04-14T08:33:52.528Z,14.78
2019-04-14T08:36:21.262Z,14.33
2019-04-14T08:38:49.783Z,12.78
2019-04-14T08:41:18.390Z,15.13
2019-04-14T08:44:09.081Z,14.85
2019-04-14T08:47:09.262Z,13.40
2019-04-14T08:49:45.520Z,13.75
2019-04-14T08:52:42.661Z,13.13
2019-04-14T08:55:34.653Z,13.45
2019-04-14T08:58:15.647Z,17.98
2019-04-14T09:00:59.567Z,12.70
2019-04-14T09:03:54.088Z,14.15
2019-04-14T09:06:33.593Z,13.22
2019-04-14T09:09:11.922Z,13.65
2019-04-14T09:11:45.714Z,12.98
2019-04-14T09:14:14.534Z,12.53
2019-04-14T09:16:43.182Z,13.22
2019-04-14T09:19:11.904Z,14.07
2019-04-14T09:21:40.541Z,13.88
2019-04-14T09:24:09.140Z,12.33
2019-04-14T09:26:37.605Z,12.70
2019-04-14T09:29:06.222Z,13.00
2019-04-14T09:31:34.867Z,13.55
2019-04-14T09:34:03.637Z,12.78
2019-04-14T09:36:32.152Z,11.97
2019-04-14T09:39:00.792Z,11.73
2019-04-14T09:41:29.319Z,11.95
2019-04-14T09:43:57.908Z,12.10
2019-04-14T09:46:26.528Z,14.35
2019-04-14T09:48:55.166Z,17.67
2019-04-14T09:51:23.778Z,12.05
2019-04-14T09:53:52.440Z,11.90
2019-04-14T09:56:21.103Z,12.88
2019-04-14T09:58:49.617Z,12.00
2019-04-14T10:01:18.139Z,11.90
2019-04-14T10:03:46.655Z,11.22
2019-04-14T10:06:15.416Z,12.45
2019-04-14T10:08:44.167Z,11.53
2019-04-14T10:11:12.807Z,12.10
2019-04-14T10:13:41.436Z,11.18
2019-04-14T10:16:09.954Z,12.15
2019-04-14T10:18:38.464Z,10.30
2019-04-14T10:21:16.788Z,10.30
2019-04-14T10:23:39.526Z,11.33
2019-04-14T10:26:08.146Z,10.53
2019-04-14T10:28:36.796Z,10.38
2019-04-14T10:31:05.428Z,11.00
2019-04-14T10:33:33.957Z,10.80
2019-04-14T10:36:02.674Z,10.68
2019-04-14T10:38:31.203Z,10.38
2019-04-14T10:40:59.847Z,10.95
2019-04-14T10:43:28.543Z,10.48
2019-04-14T10:45:57.347Z,11.12
2019-04-14T10:48:25.951Z,10.18
2019-04-14T10:50:54.584Z,10.48
2019-04-14T10:53:23.163Z,10.50
2019-04-14T10:55:51.784Z,10.70
2019-04-14T10:58:20.384Z,11.28
2019-04-14T11:00:49.152Z,10.82
2019-04-14T11:03:17.917Z,11.22
2019-04-14T11:06:06.107Z,10.58
2019-04-14T11:08:34.795Z,10.25
2019-04-14T11:11:03.903Z,10.98
2019-04-14T11:13:32.511Z,10.90
2019-04-14T11:16:01.040Z,10.13
2019-04-14T11:18:29.643Z,11.10
2019-04-14T11:20:58.424Z,11.35
2019-04-14T11:23:27.010Z,11.53
2019-04-14T11:25:55.533Z,11.22
2019-04-14T11:28:24.242Z,10.78
2019-04-14T11:30:52.997Z,10.60
2019-04-14T11:33:30.494Z,11.65
2019-04-14T11:36:21.612Z,12.73
2019-04-14T11:38:55.430Z,10.90
2019-04-14T11:41:24.017Z,11.28
2019-04-14T11:43:52.699Z,11.45
2019-04-14T11:46:21.331Z,11.05
2019-04-14T11:48:50.296Z,12.85
2019-04-14T11:51:18.923Z,12.95
2019-04-14T11:53:47.559Z,12.47
2019-04-14T11:56:16.192Z,12.30
2019-04-14T11:58:45.133Z,11.93
2019-04-14T12:01:30.859Z,11.55
2019-04-14T12:04:13.093Z,11.73
2019-04-14T12:07:01.517Z,11.70
2019-04-14T12:09:33.199Z,11.90
2019-04-14T12:12:02.173Z,12.73
2019-04-14T12:14:30.856Z,12.60
2019-04-14T12:16:59.379Z,12.25
2019-04-14T12:19:28.136Z,13.18
2019-04-14T12:22:07.602Z,13.80
2019-04-14T12:24:27.678Z,13.40
2019-04-14T12:26:56.402Z,12.10
2019-04-14T12:29:26.031Z,13.10
2019-04-14T12:31:55.289Z,12.13
2019-04-14T12:34:24.020Z,12.05
2019-04-14T12:36:52.718Z,13.05
2019-04-14T12:39:23.236Z,13.80
2019-04-14T12:41:57.868Z,13.20
2019-04-14T12:44:51.834Z,14.70
2019-04-14T12:47:40.364Z,13.70
2019-04-14T12:50:32.278Z,13.98
2019-04-14T12:53:00.897Z,13.55
2019-04-14T12:55:29.560Z,14.50
2019-04-14T12:58:01.046Z,13.50
2019-04-14T13:00:39.881Z,14.30
2019-04-14T13:03:11.380Z,15.43
2019-04-14T13:05:40.020Z,12.80
2019-04-14T13:08:08.575Z,12.73
2019-04-14T13:10:37.118Z,13.10
2019-04-14T13:13:05.977Z,13.03
2019-04-14T13:15:34.789Z,13.58
2019-04-14T13:18:03.753Z,13.93
2019-04-14T13:20:32.822Z,13.05
2019-04-14T13:23:01.640Z,12.70
2019-04-14T13:25:32.496Z,12.82
2019-04-14T13:28:01.328Z,12.75
2019-04-14T13:30:33.475Z,11.93
2019-04-14T13:33:02.303Z,12.45
2019-04-14T13:35:30.828Z,12.50
2019-04-14T13:37:59.470Z,11.08
2019-04-14T13:40:28.252Z,11.80
2019-04-14T13:42:56.888Z,12.47
2019-04-14T13:45:25.542Z,13.28
2019-04-14T13:47:54.245Z,12.58
2019-04-14T13:50:22.848Z,13.13
2019-04-14T13:52:51.367Z,12.43
2019-04-14T13:55:20.024Z,12.82
2019-04-14T13:57:48.536Z,12.18
2019-04-14T14:00:17.799Z,12.13
2019-04-14T14:02:46.422Z,13.13
2019-04-14T14:05:15.157Z,12.28
2019-04-14T14:07:43.785Z,11.70
2019-04-14T14:10:13.091Z,11.18
2019-04-14T14:13:16.507Z,10.70
2019-04-14T14:16:16.194Z,11.20
2019-04-14T14:18:49.491Z,10.70
2019-04-14T14:21:36.703Z,10.95
2019-04-14T14:24:36.980Z,11.35
2019-04-14T14:27:07.220Z,11.18
2019-04-14T14:29:35.731Z,11.03
2019-04-14T14:32:06.353Z,11.78
2019-04-14T14:34:35.145Z,12.00
2019-04-14T14:37:03.687Z,12.00
2019-04-14T14:39:32.287Z,11.85
2019-04-14T14:42:00.928Z,9.93
2019-04-14T14:44:46.850Z,10.88
2019-04-14T14:47:21.368Z,10.53
2019-04-14T14:50:16.560Z,11.65
2019-04-14T14:52:45.214Z,10.80
2019-04-14T14:55:13.838Z,10.43
2019-04-14T14:57:42.557Z,10.28
2019-04-14T15:00:27.620Z,10.90
2019-04-14T15:02:56.258Z,9.60
2019-04-14T15:05:24.887Z,10.13
2019-04-14T15:07:53.518Z,10.35
2019-04-14T15:10:22.035Z,10.28
2019-04-14T15:12:50.684Z,11.60
2019-04-14T15:15:19.317Z,11.78
2019-04-14T15:17:47.835Z,11.65
2019-04-14T15:20:16.640Z,11.10
2019-04-14T15:22:45.168Z,11.18
2019-04-14T15:25:13.898Z,11.30
2019-04-14T15:27:42.577Z,10.58
2019-04-14T15:30:16.443Z,10.55
2019-04-14T15:32:45.450Z,10.30
2019-04-14T15:35:14.063Z,10.30
2019-04-14T15:37:42.748Z,9.20
2019-04-14T15:40:11.497Z,10.58
2019-04-14T15:42:40.223Z,10.25
2019-04-14T15:45:10.033Z,9.98
2019-04-14T15:47:38.783Z,10.05
2019-04-14T15:50:07.597Z,11.12
2019-04-14T15:52:36.439Z,11.97
2019-04-14T15:55:05.279Z,11.65
2019-04-14T15:57:53.462Z,11.45
2019-04-14T16:00:36.203Z,11.45
2019-04-14T16:03:17.186Z,10.88
2019-04-14T16:05:59.363Z,11.63
2019-04-14T16:08:31.691Z,11.50
2019-04-14T16:11:16.909Z,10.82
2019-04-14T16:14:05.093Z,10.80
2019-04-14T16:16:43.724Z,10.38
2019-04-14T16:19:19.123Z,10.72
2019-04-14T16:23:32.628Z,11.48
2019-04-14T16:26:24.118Z,11.28
2019-04-14T16:29:21.553Z,10.72
2019-04-14T16:32:25.567Z,10.68
2019-04-14T16:35:08.812Z,11.35
2019-04-14T16:37:36.979Z,11.90
2019-04-14T16:40:06.601Z,10.58
2019-04-14T16:42:35.643Z,10.03
2019-04-14T16:45:07.040Z,11.03
2019-04-14T16:47:36.565Z,12.88
2019-04-14T16:50:05.945Z,10.35
2019-04-14T16:53:09.687Z,10.30
2019-04-14T16:55:58.481Z,10.75
2019-04-14T16:58:48.405Z,9.45
2019-04-14T17:01:22.381Z,11.40
2019-04-14T17:03:51.507Z,11.95
2019-04-14T17:06:20.714Z,10.95
2019-04-14T17:08:49.722Z,10.38
2019-04-14T17:11:18.832Z,10.53
2019-04-14T17:13:57.580Z,9.63
2019-04-14T17:16:52.240Z,10.03
2019-04-14T17:22:16.094Z,10.03
2019-04-14T17:25:07.872Z,10.08
2019-04-14T17:27:44.772Z,10.28
2019-04-14T17:30:34.068Z,10.50
2019-04-14T17:33:19.890Z,10.90
2019-04-14T17:35:53.910Z,10.30
2019-04-14T17:41:34.371Z,10.60
2019-04-14T17:44:09.326Z,10.53
2019-04-14T17:46:58.547Z,10.58
2019-04-14T17:52:42.397Z,10.75
2019-04-14T17:55:23.935Z,9.88
2019-04-14T17:57:58.852Z,10.15
2019-04-14T18:01:05.823Z,10.15
2019-04-14T18:04:03.490Z,10.43
2019-04-14T18:06:54.970Z,10.18
2019-04-14T18:09:55.743Z,9.23
2019-04-14T18:12:46.341Z,10.35
2019-04-14T18:15:47.287Z,10.23
2019-04-14T18:18:34.790Z,9.93
2019-04-14T18:21:06.166Z,10.00
2019-04-14T18:23:35.408Z,10.50
2019-04-14T18:26:04.515Z,10.00
2019-04-14T18:28:52.406Z,11.25
2019-04-14T18:31:41.251Z,10.23
2019-04-14T18:34:32.897Z,9.95
2019-04-14T18:37:20.507Z,11.38
2019-04-14T18:40:06.204Z,16.32
2019-04-14T18:42:59.112Z,12.03
2019-04-14T18:45:32.486Z,10.08
2019-04-14T18:48:24.049Z,10.80
2019-04-14T18:51:20.487Z,10.45
2019-04-14T18:54:03.730Z,9.45
2019-04-14T18:56:51.077Z,9.35
2019-04-14T18:59:41.562Z,10.13
2019-04-14T19:02:13.921Z,10.15
2019-04-14T19:04:43.018Z,10.05
2019-04-14T19:07:13.508Z,9.70
2019-04-14T19:09:43.181Z,8.18
2019-04-14T19:12:44.125Z,8.08
2019-04-14T19:15:28.834Z,7.08
2019-04-14T19:18:19.476Z,7.67
2019-04-14T19:20:53.583Z,7.15
2019-04-14T19:25:51.588Z,7.17
2019-04-14T19:28:20.684Z,8.15
2019-04-14T19:30:49.783Z,9.23
2019-04-14T19:33:18.916Z,16.17
2019-04-14T19:35:47.986Z,9.15
2019-04-14T19:38:17.185Z,7.85
2019-04-14T19:40:46.453Z,7.47
2019-04-14T19:43:23.562Z,8.78
2019-04-14T19:45:46.586Z,8.25
2019-04-14T19:48:15.863Z,9.43
2019-04-14T19:50:45.140Z,8.65
2019-04-14T19:53:14.261Z,7.67
2019-04-14T19:55:43.476Z,8.10
2019-04-14T19:58:12.642Z,8.40
2019-04-14T20:00:42.953Z,7.72
2019-04-14T20:03:12.154Z,8.35
2019-04-14T20:05:41.358Z,8.38
2019-04-14T20:08:10.480Z,9.33
2019-04-14T20:10:41.371Z,8.30
2019-04-14T20:13:10.520Z,8.40
2019-04-14T20:16:02.628Z,10.65
2019-04-14T20:18:50.187Z,8.43
2019-04-14T20:21:29.057Z,8.50
2019-04-14T20:24:06.240Z,8.33
2019-04-14T20:27:04.946Z,8.03
2019-04-14T20:29:39.130Z,8.43
2019-04-14T20:32:23.117Z,8.30
2019-04-14T20:34:53.547Z,9.90
2019-04-14T20:37:22.683Z,9.53
2019-04-14T20:39:51.828Z,10.03
2019-04-14T20:42:21.043Z,8.70
2019-04-14T20:44:50.075Z,9.70
2019-04-14T20:47:19.232Z,9.25
2019-04-14T20:49:49.815Z,8.68
2019-04-14T20:52:18.970Z,10.58
2019-04-14T20:54:48.000Z,9.00
2019-04-14T20:57:17.060Z,9.20
2019-04-14T20:59:46.228Z,13.25
2019-04-14T21:02:46.931Z,9.33
2019-04-14T21:05:34.396Z,10.03
2019-04-14T21:08:32.172Z,9.73
2019-04-14T21:11:15.853Z,9.05
2019-04-14T21:14:13.255Z,9.13
2019-04-14T21:16:56.965Z,9.55
2019-04-14T21:19:43.765Z,9.63
2019-04-14T21:22:32.270Z,9.68
2019-04-14T21:25:21.002Z,10.35
2019-04-14T21:28:03.156Z,10.45
2019-04-14T21:30:44.177Z,9.20
2019-04-14T21:33:24.042Z,15.48
2019-04-14T21:36:13.275Z,10.55
2019-04-14T21:39:00.689Z,9.08
2019-04-14T21:41:30.177Z,9.43
2019-04-14T21:43:59.227Z,9.53
2019-04-14T21:46:28.335Z,9.75
2019-04-14T21:48:57.377Z,9.93
2019-04-14T21:51:46.088Z,9.30
2019-04-14T21:54:15.709Z,9.03
2019-04-14T21:56:46.840Z,9.53
2019-04-14T21:59:23.005Z,9.65
2019-04-14T22:02:15.666Z,10.63
2019-04-14T22:05:10.426Z,10.35
2019-04-14T22:08:08.191Z,10.40
2019-04-14T22:10:40.218Z,10.75
2019-04-14T22:13:09.284Z,10.13
2019-04-14T22:15:38.377Z,11.33
2019-04-14T22:18:07.716Z,10.75
2019-04-14T22:20:36.829Z,9.53
2019-04-14T22:23:10.066Z,10.72
2019-04-14T22:25:39.215Z,10.15
2019-04-14T22:28:08.345Z,11.30
2019-04-14T22:30:37.427Z,11.08
2019-04-14T22:33:06.480Z,10.93
2019-04-14T22:35:37.537Z,11.08
2019-04-14T22:38:06.602Z,11.35
2019-04-14T22:40:35.787Z,11.60
2019-04-14T22:43:04.879Z,11.12
2019-04-14T22:45:34.211Z,10.20
2019-04-14T22:48:03.641Z,10.85
2019-04-14T22:50:33.170Z,11.75
2019-04-14T22:53:02.256Z,11.63
2019-04-14T22:55:32.680Z,12.07
2019-04-14T22:58:01.802Z,11.55
2019-04-14T23:00:47.755Z,11.10
2019-04-14T23:03:33.672Z,11.20
2019-04-14T23:06:25.029Z,11.18
2019-04-14T23:09:13.293Z,11.10
2019-04-14T23:11:50.138Z,10.80
2019-04-14T23:14:38.644Z,10.95
2019-04-14T23:17:45.640Z,11.45
2019-04-14T23:20:18.220Z,11.30
2019-04-14T23:23:06.884Z,11.05
2019-04-14T23:25:36.988Z,11.57
2019-04-14T23:28:06.074Z,11.95
2019-04-14T23:30:35.128Z,11.97
2019-04-14T23:33:04.365Z,12.25
2019-04-14T23:35:33.414Z,11.35
2019-04-14T23:38:02.441Z,12.35
2019-04-14T23:40:33.242Z,12.85
2019-04-14T23:43:02.320Z,13.28
2019-04-14T23:45:31.323Z,13.43
2019-04-14T23:48:00.462Z,13.50
2019-04-14T23:50:29.830Z,13.58
2019-04-14T23:52:58.804Z,14.45
2019-04-14T23:55:27.871Z,13.83
2019-04-14T23:57:57.217Z,13.58
